Time;durP1;ratioP1;P1;durP2;ratioP2;P2;SDS_P1;SDS_P2;PMS_P1;PMS_P2;Temp;Humidity;BMP_temperature;BMP_pressure;BME280_temperature;BME280_humidity;BME280_pressure;Samples;Min_cycle;Max_cycle;Signal;HPM_P1;HPM_P2
2021/06/27 00:00:25;;;;;;;53.95;36.50;;;20.30;79.40;;;;;;4983159;28;20238;-85
2021/06/27 00:02:51;;;;;;;62.00;37.83;;;20.20;79.40;;;;;;4982950;28;20222;-84
2021/06/27 00:05:20;;;;;;;66.33;41.07;;;20.10;79.90;;;;;;4983224;28;20189;-84
2021/06/27 00:07:46;;;;;;;58.22;40.17;;;20.00;80.30;;;;;;5000655;28;20661;-84
2021/06/27 00:10:16;;;;;;;63.20;40.22;;;20.20;80.20;;;;;;5000169;28;20183;-84
2021/06/27 00:12:43;;;;;;;73.88;40.58;;;20.20;80.20;;;;;;4982877;28;20211;-84
2021/06/27 00:15:23;;;;;;;63.30;40.78;;;20.10;80.10;;;;;;4982171;28;20214;-84
2021/06/27 00:17:50;;;;;;;59.22;41.15;;;20.20;79.90;;;;;;5000524;28;20175;-84
2021/06/27 00:20:21;;;;;;;63.80;41.17;;;20.20;79.70;;;;;;4982401;28;20179;-85
2021/06/27 00:22:47;;;;;;;63.90;40.00;;;20.20;79.60;;;;;;4987754;28;20214;-84
2021/06/27 00:25:15;;;;;;;61.03;38.80;;;20.10;79.90;;;;;;4988779;28;20183;-84
2021/06/27 00:27:44;;;;;;;63.13;38.08;;;20.10;79.90;;;;;;4983971;28;20649;-84
2021/06/27 00:30:10;;;;;;;62.28;41.72;;;20.10;79.90;;;;;;4983392;28;20218;-84
2021/06/27 00:32:37;;;;;;;68.78;41.60;;;19.90;80.00;;;;;;4983379;28;20211;-84
2021/06/27 00:35:06;;;;;;;65.38;41.17;;;20.00;80.10;;;;;;5000271;28;20207;-83
2021/06/27 00:37:32;;;;;;;60.70;40.65;;;19.90;80.20;;;;;;4982205;28;20580;-84
2021/06/27 00:39:58;;;;;;;69.70;39.80;;;19.90;80.10;;;;;;5000114;28;20175;-84
2021/06/27 00:42:24;;;;;;;58.53;38.40;;;19.90;79.90;;;;;;4999318;28;20191;-84
2021/06/27 00:44:49;;;;;;;62.13;40.90;;;19.90;80.00;;;;;;4998610;28;20302;-85
2021/06/27 00:47:33;;;;;;;59.03;39.43;;;19.90;79.60;;;;;;4999733;28;20179;-84
2021/06/27 00:49:59;;;;;;;61.28;40.90;;;20.00;79.30;;;;;;5000041;28;20745;-84
2021/06/27 00:52:25;;;;;;;60.60;38.50;;;20.00;78.90;;;;;;4982067;28;20268;-84
2021/06/27 00:54:51;;;;;;;57.70;40.25;;;20.10;79.00;;;;;;4982296;28;20214;-84
2021/06/27 00:57:17;;;;;;;62.60;39.60;;;20.10;78.80;;;;;;4982302;28;20183;-84
2021/06/27 00:59:43;;;;;;;62.70;43.77;;;20.00;78.50;;;;;;4982533;28;20185;-84
2021/06/27 01:02:09;;;;;;;63.53;41.37;;;19.90;78.70;;;;;;4997736;28;20537;-84
2021/06/27 01:04:37;;;;;;;58.03;38.17;;;20.00;78.30;;;;;;4982091;28;20183;-84
2021/06/27 01:07:04;;;;;;;57.80;39.50;;;20.00;78.20;;;;;;4993625;28;20422;-83
2021/06/27 01:09:30;;;;;;;56.40;38.78;;;19.90;78.10;;;;;;4979577;28;20190;-83
2021/06/27 01:11:57;;;;;;;58.90;40.17;;;20.00;78.10;;;;;;5008424;28;20214;-84
2021/06/27 01:14:23;;;;;;;64.43;41.22;;;20.00;77.60;;;;;;5003299;28;20214;-84
2021/06/27 01:16:49;;;;;;;56.73;37.70;;;19.90;77.60;;;;;;4988124;28;20183;-84
2021/06/27 01:19:15;;;;;;;56.47;40.40;;;19.90;77.50;;;;;;4987596;28;20189;-84
2021/06/27 01:21:41;;;;;;;62.17;39.60;;;19.90;77.50;;;;;;4986105;28;20430;-84
2021/06/27 01:24:07;;;;;;;57.95;39.53;;;19.80;77.50;;;;;;4984664;28;20274;-84
2021/06/27 01:26:33;;;;;;;58.00;39.60;;;19.80;77.80;;;;;;4987328;28;20203;-84
2021/06/27 01:28:59;;;;;;;57.07;40.90;;;19.90;77.40;;;;;;5004347;28;20421;-84
2021/06/27 01:31:28;;;;;;;57.50;40.70;;;19.90;77.30;;;;;;5002642;28;20195;-84
2021/06/27 01:33:55;;;;;;;60.78;42.78;;;19.80;77.20;;;;;;4986028;28;20207;-84
2021/06/27 01:36:24;;;;;;;58.08;38.78;;;19.70;77.20;;;;;;4985707;28;20175;-84
2021/06/27 01:38:50;;;;;;;61.28;39.47;;;19.70;77.50;;;;;;5002892;28;20204;-85
2021/06/27 01:41:18;;;;;;;63.38;40.45;;;19.80;77.50;;;;;;4985165;28;20192;-84
2021/06/27 01:43:43;;;;;;;63.05;41.25;;;19.70;77.40;;;;;;4985243;28;20215;-84
2021/06/27 01:46:09;;;;;;;63.10;42.60;;;19.70;77.50;;;;;;4986678;28;20519;-83
2021/06/27 01:48:36;;;;;;;55.10;38.70;;;19.70;77.20;;;;;;4999448;28;20411;-85
2021/06/27 01:51:04;;;;;;;56.97;38.63;;;19.70;77.40;;;;;;4999877;28;20626;-84
2021/06/27 01:53:33;;;;;;;59.05;38.15;;;19.70;77.10;;;;;;4987042;28;20210;-83
2021/06/27 01:56:06;;;;;;;57.28;39.67;;;19.60;76.80;;;;;;4992404;28;20215;-83
2021/06/27 01:58:46;;;;;;;59.97;38.63;;;19.70;77.00;;;;;;4992448;28;20179;-84
2021/06/27 02:01:38;;;;;;;56.60;37.42;;;19.70;76.80;;;;;;5008660;28;20198;-84
2021/06/27 02:04:05;;;;;;;53.30;39.45;;;19.60;76.70;;;;;;4992636;28;20187;-83
2021/06/27 02:06:35;;;;;;;59.08;39.08;;;19.60;76.80;;;;;;4988826;28;20627;-84
2021/06/27 02:09:03;;;;;;;63.50;42.08;;;19.60;77.00;;;;;;4984190;28;20202;-84
2021/06/27 02:11:29;;;;;;;59.50;38.35;;;19.60;76.80;;;;;;4987394;28;20203;-84
2021/06/27 02:13:56;;;;;;;56.60;39.90;;;19.70;76.50;;;;;;4988031;28;20254;-84
2021/06/27 02:16:22;;;;;;;50.85;38.17;;;19.70;76.20;;;;;;4987988;28;20418;-83
2021/06/27 02:18:49;;;;;;;55.17;40.00;;;19.70;76.20;;;;;;4988289;28;20189;-83
2021/06/27 02:21:21;;;;;;;53.08;38.00;;;19.70;76.10;;;;;;4987949;28;20465;-84
2021/06/27 02:23:48;;;;;;;54.25;39.88;;;19.70;76.00;;;;;;4987556;28;20187;-84
2021/06/27 02:26:13;;;;;;;51.78;39.13;;;19.70;75.80;;;;;;5004934;28;20195;-84
2021/06/27 02:28:40;;;;;;;52.10;38.20;;;19.70;76.10;;;;;;4988349;28;20241;-84
2021/06/27 02:31:07;;;;;;;51.30;36.88;;;19.70;75.80;;;;;;5012036;28;20187;-84
2021/06/27 02:33:33;;;;;;;50.03;38.70;;;19.80;75.60;;;;;;5005289;28;20175;-84
2021/06/27 02:35:59;;;;;;;48.13;35.40;;;19.80;75.30;;;;;;4988297;28;20234;-84
2021/06/27 02:38:25;;;;;;;49.55;37.08;;;19.90;75.20;;;;;;5005160;28;20413;-84
2021/06/27 02:40:52;;;;;;;50.88;37.33;;;19.90;74.90;;;;;;4986470;28;20214;-84
2021/06/27 02:43:18;;;;;;;53.63;37.95;;;19.90;74.80;;;;;;4987682;28;20202;-84
2021/06/27 02:45:45;;;;;;;54.45;37.40;;;19.80;74.80;;;;;;4986958;28;20187;-84
2021/06/27 02:48:11;;;;;;;48.03;36.38;;;19.80;75.10;;;;;;5004093;28;20179;-84
2021/06/27 02:50:38;;;;;;;56.07;38.50;;;19.80;74.90;;;;;;4986706;28;20326;-84
2021/06/27 02:53:04;;;;;;;53.85;36.60;;;19.80;74.80;;;;;;4987070;28;20427;-84
2021/06/27 02:55:30;;;;;;;53.20;38.05;;;19.70;74.90;;;;;;4988482;28;20557;-84
2021/06/27 02:57:56;;;;;;;52.07;37.77;;;19.80;74.60;;;;;;4988045;28;20182;-83
2021/06/27 03:00:23;;;;;;;51.60;38.47;;;19.80;74.50;;;;;;4986877;28;20183;-84
2021/06/27 03:02:48;;;;;;;49.65;36.90;;;19.90;74.50;;;;;;5004829;28;20233;-84
2021/06/27 03:05:15;;;;;;;47.40;36.50;;;19.90;74.30;;;;;;4988160;28;20717;-83
2021/06/27 03:07:42;;;;;;;47.70;35.80;;;19.90;74.50;;;;;;4988763;28;20925;-83
2021/06/27 03:10:11;;;;;;;48.40;35.78;;;19.90;74.30;;;;;;4988184;28;20194;-84
2021/06/27 03:12:42;;;;;;;57.63;38.40;;;20.00;73.90;;;;;;4986764;28;20210;-84
2021/06/27 03:15:09;;;;;;;47.70;36.75;;;20.00;73.90;;;;;;4988250;28;20207;-84
2021/06/27 03:17:35;;;;;;;46.03;33.28;;;20.00;73.70;;;;;;4986162;28;20209;-83
2021/06/27 03:20:02;;;;;;;50.72;37.50;;;19.90;73.80;;;;;;4986081;28;20190;-84
2021/06/27 03:22:27;;;;;;;52.22;35.10;;;19.90;73.90;;;;;;5003546;28;20191;-84
2021/06/27 03:24:53;;;;;;;48.07;36.17;;;19.80;74.00;;;;;;5004119;28;20547;-84
2021/06/27 03:27:20;;;;;;;49.13;34.33;;;19.90;74.10;;;;;;5005847;28;20160;-84
2021/06/27 03:29:46;;;;;;;50.17;36.13;;;19.80;74.20;;;;;;5002351;28;20181;-83
2021/06/27 03:32:12;;;;;;;45.67;33.33;;;19.80;74.30;;;;;;5002136;28;20218;-83
2021/06/27 03:34:37;;;;;;;50.90;35.17;;;19.70;74.40;;;;;;4999959;28;20187;-83
2021/06/27 03:37:03;;;;;;;49.90;35.63;;;19.80;74.30;;;;;;5002769;28;20262;-84
2021/06/27 03:39:29;;;;;;;63.25;35.25;;;19.70;74.30;;;;;;5002852;28;20190;-84
2021/06/27 03:41:55;;;;;;;51.43;34.70;;;19.80;74.10;;;;;;5002215;28;20199;-83
2021/06/27 03:44:22;;;;;;;49.60;34.80;;;19.70;74.10;;;;;;5002967;28;20164;-85
2021/06/27 03:46:48;;;;;;;45.50;33.28;;;19.80;74.30;;;;;;5002419;28;20247;-83
2021/06/27 03:49:14;;;;;;;46.70;34.33;;;19.90;74.10;;;;;;5002751;28;20187;-83
2021/06/27 03:51:40;;;;;;;46.77;33.77;;;19.80;73.70;;;;;;5001903;28;20206;-84
2021/06/27 03:54:06;;;;;;;51.80;36.58;;;19.90;73.60;;;;;;5002646;28;20489;-83
2021/06/27 03:56:32;;;;;;;44.97;33.22;;;19.90;73.60;;;;;;5019356;28;20167;-82
2021/06/27 03:58:57;;;;;;;49.93;33.90;;;20.00;73.10;;;;;;5018652;28;20221;-83
2021/06/27 04:01:23;;;;;;;50.90;34.13;;;20.00;72.90;;;;;;5001972;28;20223;-83
2021/06/27 04:03:49;;;;;;;42.50;32.33;;;19.90;72.80;;;;;;5002497;28;20179;-83
2021/06/27 04:06:15;;;;;;;45.78;31.63;;;19.90;73.20;;;;;;5019274;28;20434;-83
2021/06/27 04:08:41;;;;;;;45.50;32.83;;;19.90;73.10;;;;;;4998069;28;20183;-83
2021/06/27 04:11:07;;;;;;;47.73;33.90;;;19.90;73.20;;;;;;5001328;28;20191;-83
2021/06/27 04:13:35;;;;;;;47.35;33.08;;;20.10;73.20;;;;;;5002016;28;20248;-88
2021/06/27 04:16:02;;;;;;;47.47;32.97;;;20.00;72.90;;;;;;5001903;28;20218;-88
2021/06/27 04:18:27;;;;;;;42.38;32.05;;;19.90;72.90;;;;;;5001402;28;20189;-88
2021/06/27 04:20:54;;;;;;;44.53;32.80;;;19.90;73.20;;;;;;5018436;28;20211;-88
2021/06/27 04:23:21;;;;;;;39.50;30.63;;;20.00;72.80;;;;;;5002039;28;20433;-86
2021/06/27 04:25:47;;;;;;;41.60;31.92;;;20.10;72.90;;;;;;5000167;28;20207;-89
2021/06/27 04:28:13;;;;;;;43.37;32.43;;;20.10;72.90;;;;;;5016384;28;20638;-87
2021/06/27 04:30:40;;;;;;;41.78;31.00;;;20.00;72.70;;;;;;4998756;28;20517;-88
2021/06/27 04:33:07;;;;;;;46.97;32.25;;;19.90;72.90;;;;;;5013598;28;20179;-88
2021/06/27 04:35:35;;;;;;;41.67;32.40;;;19.90;73.10;;;;;;4997011;28;20238;-88
2021/06/27 04:38:06;;;;;;;48.80;35.50;;;19.90;73.40;;;;;;5019892;28;20187;-89
2021/06/27 04:40:33;;;;;;;43.92;32.95;;;19.90;73.40;;;;;;4998044;28;20254;-88
2021/06/27 04:42:59;;;;;;;42.33;30.25;;;20.00;73.00;;;;;;4999781;28;20211;-88
2021/06/27 04:45:25;;;;;;;38.97;29.60;;;20.00;72.80;;;;;;4987018;28;20199;-85
2021/06/27 04:47:51;;;;;;;40.43;31.67;;;20.10;73.10;;;;;;4981883;28;20548;-86
2021/06/27 04:50:17;;;;;;;43.35;33.63;;;20.10;73.00;;;;;;4979700;28;20502;-87
2021/06/27 04:52:43;;;;;;;39.87;30.40;;;20.20;72.70;;;;;;4979101;28;20665;-86
2021/06/27 04:55:09;;;;;;;46.17;30.80;;;20.40;72.20;;;;;;4978962;28;20468;-85
2021/06/27 04:57:35;;;;;;;39.63;31.42;;;20.50;71.90;;;;;;4979302;28;20464;-86
2021/06/27 05:00:03;;;;;;;40.27;29.60;;;20.50;71.50;;;;;;4979531;28;20657;-85
2021/06/27 05:02:29;;;;;;;38.35;31.33;;;20.70;71.40;;;;;;4998770;28;20477;-86
2021/06/27 05:04:55;;;;;;;41.17;29.87;;;20.60;70.80;;;;;;4983357;28;20265;-86
2021/06/27 05:07:21;;;;;;;39.57;30.67;;;20.70;70.80;;;;;;4979522;28;20183;-85
2021/06/27 05:09:49;;;;;;;36.88;30.17;;;20.80;70.50;;;;;;4994897;28;20524;-86
2021/06/27 05:12:15;;;;;;;42.67;30.27;;;20.80;70.20;;;;;;4978414;28;20199;-85
2021/06/27 05:14:41;;;;;;;42.10;30.20;;;20.80;69.80;;;;;;4979051;28;20211;-86
2021/06/27 05:17:07;;;;;;;35.37;27.93;;;20.80;70.10;;;;;;4996554;28;20438;-85
2021/06/27 05:19:32;;;;;;;37.30;28.50;;;21.10;69.90;;;;;;4994929;28;20418;-86
2021/06/27 05:21:58;;;;;;;35.83;27.60;;;21.60;69.00;;;;;;4978074;28;20206;-85
2021/06/27 05:24:24;;;;;;;32.20;25.30;;;22.30;67.70;;;;;;4979766;28;20198;-85
2021/06/27 05:26:50;;;;;;;31.47;27.57;;;23.10;64.90;;;;;;4978685;28;20710;-86
2021/06/27 05:29:16;;;;;;;34.03;27.17;;;24.00;61.20;;;;;;4979967;28;20422;-86
2021/06/27 05:31:41;;;;;;;30.73;25.70;;;25.20;58.30;;;;;;4982194;28;20206;-86
2021/06/27 05:34:07;;;;;;;25.47;22.77;;;26.20;54.20;;;;;;4981521;28;20450;-86
2021/06/27 05:36:37;;;;;;;27.83;24.23;;;27.00;50.60;;;;;;4982347;28;20651;-86
2021/06/27 05:39:08;;;;;;;28.13;25.10;;;27.20;50.40;;;;;;4983209;28;20199;-86
2021/06/27 05:41:34;;;;;;;30.83;25.77;;;27.00;49.50;;;;;;4994467;28;20449;-86
2021/06/27 05:44:01;;;;;;;31.23;26.00;;;26.30;50.30;;;;;;4981798;28;20511;-86
2021/06/27 05:46:26;;;;;;;32.93;28.83;;;25.80;51.50;;;;;;4981350;28;20453;-86
2021/06/27 05:48:52;;;;;;;33.63;28.17;;;25.40;52.90;;;;;;4981543;28;20784;-86
2021/06/27 05:51:18;;;;;;;28.07;25.00;;;24.70;54.80;;;;;;4981522;28;20207;-86
2021/06/27 05:53:44;;;;;;;34.17;27.57;;;24.30;56.10;;;;;;4981729;28;20433;-86
2021/06/27 05:56:11;;;;;;;37.27;26.90;;;23.80;57.80;;;;;;4982492;28;20418;-86
2021/06/27 05:58:41;;;;;;;34.03;28.97;;;23.60;59.10;;;;;;4983797;28;20501;-86
2021/06/27 06:01:14;;;;;;;30.67;26.20;;;23.20;60.20;;;;;;4981821;28;20960;-86
2021/06/27 06:03:40;;;;;;;32.43;28.10;;;22.80;61.50;;;;;;4982135;28;20411;-86
2021/06/27 06:06:08;;;;;;;35.33;28.30;;;22.80;62.20;;;;;;4982105;28;20822;-85
2021/06/27 06:08:34;;;;;;;40.40;29.33;;;22.80;63.40;;;;;;4981760;28;20449;-86
2021/06/27 06:11:00;;;;;;;33.00;26.60;;;22.80;62.90;;;;;;4981342;28;20923;-86
2021/06/27 06:13:26;;;;;;;34.13;29.37;;;22.90;63.00;;;;;;4981006;28;20460;-86
2021/06/27 06:15:51;;;;;;;34.63;27.77;;;22.80;62.80;;;;;;4999125;28;20486;-87
2021/06/27 06:18:17;;;;;;;35.37;27.80;;;23.00;62.60;;;;;;4997522;28;20184;-86
2021/06/27 06:20:43;;;;;;;34.47;25.90;;;23.10;62.10;;;;;;4980916;28;20415;-86
2021/06/27 06:23:09;;;;;;;30.57;25.10;;;23.10;61.80;;;;;;4981053;28;20940;-86
2021/06/27 06:25:35;;;;;;;32.93;26.57;;;23.20;62.20;;;;;;4981563;28;20273;-86
2021/06/27 06:28:01;;;;;;;33.40;24.87;;;23.20;61.60;;;;;;4981128;28;20464;-86
2021/06/27 06:30:27;;;;;;;30.77;26.20;;;23.30;61.80;;;;;;4982516;28;20423;-86
2021/06/27 06:32:53;;;;;;;35.93;26.70;;;23.10;61.20;;;;;;4997418;28;20476;-86
2021/06/27 06:35:19;;;;;;;31.40;25.77;;;23.00;61.80;;;;;;4981243;28;20678;-86
2021/06/27 06:37:44;;;;;;;33.30;26.60;;;22.90;62.20;;;;;;4980772;28;20423;-85
2021/06/27 06:40:11;;;;;;;28.57;24.70;;;23.00;62.10;;;;;;4980891;28;20187;-86
2021/06/27 06:42:36;;;;;;;28.23;24.07;;;23.00;62.20;;;;;;4983477;28;20203;-85
2021/06/27 06:45:03;;;;;;;33.40;25.23;;;23.20;61.80;;;;;;5005974;28;20422;-85
2021/06/27 06:47:29;;;;;;;29.97;24.47;;;23.20;61.50;;;;;;4981128;28;20183;-86
2021/06/27 06:49:54;;;;;;;27.47;23.87;;;23.30;61.50;;;;;;4981057;28;20521;-86
2021/06/27 06:52:20;;;;;;;34.53;26.83;;;23.20;61.40;;;;;;4996742;28;20199;-86
2021/06/27 06:54:46;;;;;;;28.47;24.27;;;23.30;61.50;;;;;;4981542;28;20310;-85
2021/06/27 06:57:11;;;;;;;32.50;24.37;;;23.40;61.20;;;;;;4981994;28;20194;-86
2021/06/27 06:59:37;;;;;;;33.63;25.80;;;23.40;61.20;;;;;;4981977;28;20179;-86
2021/06/27 07:02:03;;;;;;;32.40;24.83;;;23.40;61.00;;;;;;4982134;28;20215;-86
2021/06/27 07:04:28;;;;;;;33.67;25.27;;;23.40;61.20;;;;;;4984944;28;20187;-86
2021/06/27 07:06:54;;;;;;;31.53;26.07;;;23.50;61.40;;;;;;5003998;28;20183;-86
2021/06/27 07:09:20;;;;;;;37.43;26.03;;;23.50;61.40;;;;;;4987405;28;20188;-86
2021/06/27 07:11:46;;;;;;;29.13;24.60;;;23.30;61.50;;;;;;4986761;28;20253;-86
2021/06/27 07:14:11;;;;;;;32.57;25.07;;;23.30;61.90;;;;;;4988619;28;20217;-86
2021/06/27 07:16:37;;;;;;;29.70;24.80;;;23.20;61.80;;;;;;4987924;28;20183;-86
2021/06/27 07:19:03;;;;;;;29.63;23.97;;;23.30;61.80;;;;;;4987041;28;20629;-85
2021/06/27 07:21:30;;;;;;;31.80;25.77;;;23.30;61.90;;;;;;4983914;28;20502;-86
2021/06/27 07:23:56;;;;;;;35.80;26.33;;;23.20;62.00;;;;;;4983456;28;20426;-85
2021/06/27 07:26:23;;;;;;;33.27;23.63;;;23.10;62.40;;;;;;4981100;28;20413;-85
2021/06/27 07:28:48;;;;;;;28.73;24.17;;;23.10;62.70;;;;;;4979782;28;20426;-85
2021/06/27 07:31:14;;;;;;;31.13;24.90;;;23.30;62.70;;;;;;4979926;28;20866;-85
2021/06/27 07:33:40;;;;;;;31.20;25.30;;;23.20;62.50;;;;;;4980000;28;20179;-86
2021/06/27 07:36:06;;;;;;;31.17;26.87;;;23.30;62.50;;;;;;4979999;28;20910;-86
2021/06/27 07:38:32;;;;;;;30.53;25.47;;;23.40;62.20;;;;;;4981325;28;20274;-86
2021/06/27 07:40:58;;;;;;;31.67;24.30;;;23.50;62.30;;;;;;4980370;28;20453;-84
2021/06/27 07:43:24;;;;;;;29.10;24.50;;;23.50;61.90;;;;;;4979961;28;20434;-85
2021/06/27 07:45:50;;;;;;;31.83;25.53;;;23.40;61.90;;;;;;4986316;28;20422;-85
2021/06/27 07:48:16;;;;;;;31.40;23.80;;;23.50;62.00;;;;;;5008205;28;20175;-86
2021/06/27 07:50:41;;;;;;;30.80;22.50;;;23.60;61.60;;;;;;4981783;28;20183;-87
2021/06/27 07:53:08;;;;;;;29.87;23.53;;;23.70;61.50;;;;;;4980774;28;20183;-86
2021/06/27 07:55:34;;;;;;;27.67;23.80;;;23.70;61.40;;;;;;4980079;28;20638;-86
2021/06/27 07:58:01;;;;;;;33.10;24.90;;;23.80;61.20;;;;;;4980558;28;20414;-85
2021/06/27 08:00:29;;;;;;;30.30;23.20;;;23.80;60.50;;;;;;4979839;28;20793;-86
2021/06/27 08:02:56;;;;;;;29.23;23.10;;;23.70;60.60;;;;;;4980552;28;20444;-86
2021/06/27 08:05:21;;;;;;;27.20;22.20;;;23.50;60.30;;;;;;4980905;28;20426;-85
2021/06/27 08:07:47;;;;;;;26.93;21.93;;;23.50;60.20;;;;;;4997888;28;20437;-86
2021/06/27 08:10:13;;;;;;;25.60;22.00;;;23.80;60.00;;;;;;4998889;28;20182;-86
2021/06/27 08:12:40;;;;;;;25.80;20.33;;;24.00;59.10;;;;;;4979461;28;20206;-86
2021/06/27 08:15:09;;;;;;;26.83;19.83;;;24.20;58.40;;;;;;4997735;28;20468;-86
2021/06/27 08:17:35;;;;;;;26.80;21.73;;;24.40;58.50;;;;;;4979750;28;20952;-86
2021/06/27 08:20:03;;;;;;;25.43;20.13;;;24.50;57.10;;;;;;4981279;28;20427;-86
2021/06/27 08:22:28;;;;;;;22.07;18.87;;;24.50;57.20;;;;;;4978348;28;20525;-86
2021/06/27 08:24:54;;;;;;;23.37;20.00;;;24.80;56.50;;;;;;4978778;28;20461;-85
2021/06/27 08:27:20;;;;;;;23.27;19.97;;;24.70;55.90;;;;;;4979312;28;20186;-86
2021/06/27 08:29:46;;;;;;;21.97;19.17;;;25.00;55.90;;;;;;4978778;28;20667;-86
2021/06/27 08:32:11;;;;;;;22.00;17.97;;;25.40;55.30;;;;;;4979594;28;20512;-86
2021/06/27 08:34:37;;;;;;;20.87;18.53;;;25.30;54.70;;;;;;4979684;28;20609;-86
2021/06/27 08:37:03;;;;;;;22.87;18.10;;;25.30;54.00;;;;;;4996774;28;20207;-87
2021/06/27 08:39:29;;;;;;;19.80;17.80;;;25.20;54.60;;;;;;4980242;28;20555;-86
2021/06/27 08:41:56;;;;;;;21.10;17.80;;;25.40;54.70;;;;;;4981039;28;20466;-86
2021/06/27 08:44:22;;;;;;;23.67;19.00;;;25.30;54.20;;;;;;4983483;28;20183;-86
2021/06/27 08:46:49;;;;;;;23.57;18.90;;;25.50;54.40;;;;;;4987578;28;20419;-86
2021/06/27 08:49:15;;;;;;;22.60;19.83;;;25.60;54.00;;;;;;4999722;28;20929;-86
2021/06/27 08:51:41;;;;;;;23.33;19.60;;;25.80;53.70;;;;;;4990225;28;20438;-86
2021/06/27 08:54:08;;;;;;;30.43;20.23;;;26.10;53.60;;;;;;4997316;28;20202;-86
2021/06/27 08:56:35;;;;;;;22.13;19.83;;;26.20;53.20;;;;;;4979646;28;20432;-86
2021/06/27 08:59:01;;;;;;;19.00;17.10;;;26.30;52.80;;;;;;4980042;28;20472;-85
2021/06/27 09:01:28;;;;;;;20.43;18.23;;;26.30;52.60;;;;;;4978981;28;20443;-85
2021/06/27 09:03:57;;;;;;;21.07;17.67;;;26.60;52.60;;;;;;4978642;28;20930;-86
2021/06/27 09:06:36;;;;;;;21.50;17.73;;;26.10;52.70;;;;;;4979727;28;20419;-86
2021/06/27 09:09:14;;;;;;;23.50;17.53;;;26.20;52.90;;;;;;4997291;28;20829;-86
2021/06/27 09:11:56;;;;;;;21.40;17.10;;;26.20;52.30;;;;;;4978464;28;20436;-86
2021/06/27 09:14:33;;;;;;;20.97;17.73;;;25.90;51.80;;;;;;4982013;28;20450;-86
2021/06/27 09:17:17;;;;;;;18.50;16.50;;;25.80;53.20;;;;;;4995960;28;20420;-86
2021/06/27 09:19:52;;;;;;;18.87;15.77;;;25.70;53.10;;;;;;4994989;28;20910;-86
2021/06/27 09:22:19;;;;;;;16.73;15.00;;;25.80;53.30;;;;;;4994488;28;20446;-85
2021/06/27 09:24:46;;;;;;;16.40;14.70;;;25.90;53.30;;;;;;4996407;28;20407;-86
2021/06/27 09:27:38;;;;;;;17.90;16.10;;;26.00;54.50;;;;;;4995205;28;20457;-86
2021/06/27 09:30:19;;;;;;;18.73;16.30;;;25.70;53.40;;;;;;4993324;28;20407;-86
2021/06/27 09:32:56;;;;;;;20.80;14.70;;;25.70;54.70;;;;;;4996084;28;20482;-86
2021/06/27 09:35:43;;;;;;;23.07;18.60;;;25.90;54.60;;;;;;4997482;28;20461;-86
2021/06/27 09:38:24;;;;;;;22.20;16.03;;;26.00;54.80;;;;;;4996856;28;20419;-86
2021/06/27 09:41:03;;;;;;;17.60;15.53;;;26.10;53.60;;;;;;4998602;28;20423;-86
2021/06/27 09:43:34;;;;;;;17.63;15.73;;;25.80;53.40;;;;;;4998493;28;20430;-86
2021/06/27 09:46:10;;;;;;;21.20;15.20;;;25.80;53.40;;;;;;4998223;28;20423;-86
2021/06/27 09:48:51;;;;;;;19.63;16.03;;;25.80;53.40;;;;;;4997919;28;20419;-86
2021/06/27 09:51:18;;;;;;;17.47;15.67;;;26.10;53.80;;;;;;4999954;28;20435;-86
2021/06/27 09:53:46;;;;;;;18.70;14.67;;;26.10;52.80;;;;;;4987736;28;20426;-86
2021/06/27 09:56:13;;;;;;;17.43;14.43;;;26.40;52.60;;;;;;4989051;28;20862;-86
2021/06/27 09:58:39;;;;;;;17.23;14.30;;;26.60;51.30;;;;;;4981690;28;20419;-86
2021/06/27 10:01:21;;;;;;;16.37;14.30;;;26.70;50.90;;;;;;4981165;28;20450;-86
2021/06/27 10:03:56;;;;;;;16.83;13.53;;;26.90;50.90;;;;;;4978669;28;20507;-87
2021/06/27 10:06:33;;;;;;;15.13;13.73;;;27.10;51.00;;;;;;4977878;28;20410;-86
2021/06/27 10:09:12;;;;;;;16.43;13.90;;;27.20;50.00;;;;;;4977714;28;20498;-86
2021/06/27 10:11:52;;;;;;;21.90;15.03;;;27.10;50.80;;;;;;4976963;28;20465;-87
2021/06/27 10:14:18;;;;;;;16.37;12.90;;;27.20;50.00;;;;;;4977740;28;20919;-86
2021/06/27 10:16:44;;;;;;;14.80;12.27;;;26.90;50.10;;;;;;4980824;28;20442;-86
2021/06/27 10:19:10;;;;;;;14.33;11.57;;;27.10;50.20;;;;;;4981502;28;20418;-86
2021/06/27 10:21:36;;;;;;;13.43;10.27;;;27.00;49.50;;;;;;4980945;28;20441;-86
2021/06/27 10:24:02;;;;;;;16.60;11.27;;;27.00;48.70;;;;;;4980969;28;20418;-86
2021/06/27 10:26:29;;;;;;;13.80;12.07;;;27.00;48.70;;;;;;4998220;28;20535;-86
2021/06/27 10:28:55;;;;;;;12.60;11.40;;;27.10;49.00;;;;;;4981555;28;21064;-86
2021/06/27 10:31:23;;;;;;;11.40;10.20;;;27.40;48.60;;;;;;4981768;28;20941;-86
2021/06/27 10:33:49;;;;;;;10.90;9.90;;;27.40;48.00;;;;;;4980813;28;20410;-86
2021/06/27 10:36:25;;;;;;;10.00;9.00;;;27.70;47.50;;;;;;4980875;28;20445;-86
2021/06/27 10:38:52;;;;;;;11.30;10.27;;;27.80;47.10;;;;;;4980165;28;20421;-85
2021/06/27 10:41:18;;;;;;;10.70;9.70;;;27.70;46.40;;;;;;4997683;28;20426;-86
2021/06/27 10:43:56;;;;;;;12.97;11.67;;;27.60;46.70;;;;;;4980613;28;20914;-86
2021/06/27 10:46:46;;;;;;;13.20;9.60;;;27.40;47.60;;;;;;4980864;28;20182;-86
2021/06/27 10:49:30;;;;;;;12.83;11.57;;;27.60;47.70;;;;;;4980523;28;20430;-87
2021/06/27 10:52:05;;;;;;;11.63;10.63;;;27.70;47.40;;;;;;4997036;28;20528;-85
2021/06/27 10:54:37;;;;;;;13.80;10.93;;;27.70;47.20;;;;;;4979659;28;20457;-86
2021/06/27 10:57:12;;;;;;;10.20;8.90;;;27.70;47.20;;;;;;4984343;28;20415;-86
2021/06/27 11:02:14;;;;;;;11.70;10.50;;;27.80;47.00;;;;;;4998144;28;20544;-87
2021/06/27 11:04:41;;;;;;;10.63;9.23;;;27.80;46.80;;;;;;4981826;28;20525;-86
2021/06/27 11:07:07;;;;;;;17.90;11.47;;;27.70;46.60;;;;;;5000942;28;20446;-86
2021/06/27 11:09:33;;;;;;;15.23;10.57;;;27.60;46.70;;;;;;4983256;28;20241;-86
2021/06/27 11:11:59;;;;;;;10.80;9.80;;;27.30;47.20;;;;;;4982968;28;20705;-86
2021/06/27 11:14:26;;;;;;;11.57;10.47;;;27.60;47.60;;;;;;4982629;28;20218;-86
2021/06/27 11:17:04;;;;;;;12.90;9.40;;;27.70;47.20;;;;;;4983901;28;20435;-85
2021/06/27 11:19:41;;;;;;;9.70;8.80;;;28.20;47.20;;;;;;4982804;28;20427;-86
2021/06/27 11:22:26;;;;;;;9.70;8.90;;;28.60;45.90;;;;;;4999652;28;20855;-86
2021/06/27 11:24:57;;;;;;;12.23;9.43;;;28.60;45.10;;;;;;4981625;28;20799;-87
2021/06/27 11:27:49;;;;;;;9.53;8.63;;;28.60;44.10;;;;;;4979092;28;20434;-86
2021/06/27 11:30:30;;;;;;;10.80;9.00;;;28.50;44.50;;;;;;4975777;28;20430;-89
2021/06/27 11:33:12;;;;;;;8.63;7.83;;;28.60;43.50;;;;;;4979921;28;20878;-87
2021/06/27 11:35:49;;;;;;;10.63;8.60;;;28.50;43.80;;;;;;4996814;28;20450;-86
2021/06/27 11:38:33;;;;;;;9.83;8.93;;;28.30;44.10;;;;;;4979484;28;20426;-86
2021/06/27 11:40:59;;;;;;;9.60;8.70;;;27.90;44.50;;;;;;4995182;28;20976;-85
2021/06/27 11:43:54;;;;;;;9.47;8.63;;;28.00;45.20;;;;;;4979518;28;20476;-86
2021/06/27 11:46:26;;;;;;;10.30;9.30;;;27.90;45.00;;;;;;4980120;28;20476;-86
2021/06/27 11:48:53;;;;;;;9.70;8.80;;;28.10;44.70;;;;;;4994989;28;20933;-86
2021/06/27 11:51:18;;;;;;;9.40;8.60;;;28.00;45.30;;;;;;4978202;28;20446;-85
2021/06/27 11:53:44;;;;;;;10.60;8.60;;;28.10;44.80;;;;;;4978975;28;20750;-87
2021/06/27 11:56:15;;;;;;;10.53;8.63;;;28.10;45.00;;;;;;4978554;28;20234;-86
2021/06/27 11:58:40;;;;;;;9.43;8.07;;;28.20;45.20;;;;;;4978660;28;20190;-85
2021/06/27 12:01:08;;;;;;;9.63;8.80;;;28.20;44.70;;;;;;4982287;28;20443;-85
2021/06/27 12:03:43;;;;;;;9.97;9.07;;;28.20;44.60;;;;;;4991772;28;20219;-86
2021/06/27 12:06:09;;;;;;;10.00;9.00;;;28.10;44.80;;;;;;4978439;28;20444;-86
2021/06/27 12:08:35;;;;;;;10.00;9.00;;;28.10;44.90;;;;;;4977958;28;20419;-86
2021/06/27 12:11:02;;;;;;;9.57;8.60;;;28.20;44.90;;;;;;4978853;28;20500;-86
2021/06/27 12:13:29;;;;;;;18.60;9.53;;;28.20;45.00;;;;;;4981408;28;20180;-86
2021/06/27 12:15:59;;;;;;;9.70;8.70;;;28.00;45.70;;;;;;4980687;28;20630;-86
2021/06/27 12:18:27;;;;;;;11.10;9.40;;;28.10;45.70;;;;;;4963394;28;20431;-87
2021/06/27 12:21:02;;;;;;;12.63;9.37;;;28.10;45.20;;;;;;4962483;28;20497;-86
2021/06/27 12:23:34;;;;;;;9.10;8.30;;;28.20;45.20;;;;;;4964709;28;20486;-86
2021/06/27 12:26:14;;;;;;;9.63;8.50;;;28.30;45.20;;;;;;4963618;28;20506;-87
2021/06/27 12:28:46;;;;;;;9.07;7.57;;;28.40;44.40;;;;;;4963518;28;20427;-86
2021/06/27 12:31:19;;;;;;;8.60;7.90;;;28.70;43.70;;;;;;4960998;28;20439;-86
2021/06/27 12:33:51;;;;;;;8.80;8.00;;;28.90;43.00;;;;;;4961085;28;20405;-87
2021/06/27 12:36:34;;;;;;;11.70;8.87;;;29.10;43.90;;;;;;4961428;28;20474;-87